Time;durP1;ratioP1;P1;durP2;ratioP2;P2;SDS_P1;SDS_P2;PMS_P1;PMS_P2;Temp;Humidity;BMP_temperature;BMP_pressure;BME280_temperature;BME280_humidity;BME280_pressure;Samples;Min_cycle;Max_cycle;Signal;HPM_P1;HPM_P2
2023/04/04 00:00:15;;;;;;;2.80;2.38;;;;;;;;;;5110981;28;20026;-74
2023/04/04 00:02:41;;;;;;;4.07;2.50;;;;;;;;;;5110450;28;20106;-74
2023/04/04 00:05:08;;;;;;;2.15;1.52;;;;;;;;;;5110314;28;20046;-73
2023/04/04 00:07:34;;;;;;;3.83;2.08;;;;;;;;;;5092032;28;20015;-74
2023/04/04 00:10:00;;;;;;;3.35;2.10;;;;;;;;;;5110463;28;20024;-74
2023/04/04 00:12:26;;;;;;;3.00;2.60;;;;;;;;;;5092133;28;20032;-74
2023/04/04 00:14:52;;;;;;;3.92;2.45;;;;;;;;;;5110162;28;20028;-74
2023/04/04 00:17:18;;;;;;;2.45;2.10;;;;;;;;;;5110663;28;20130;-75
2023/04/04 00:19:45;;;;;;;5.38;2.20;;;;;;;;;;5092071;28;20028;-74
2023/04/04 00:22:12;;;;;;;3.53;2.15;;;;;;;;;;5092485;28;20548;-74
2023/04/04 00:24:38;;;;;;;5.45;2.10;;;;;;;;;;5092385;28;20039;-74
2023/04/04 00:27:04;;;;;;;2.13;1.98;;;;;;;;;;5094410;28;20045;-74
2023/04/04 00:29:33;;;;;;;4.85;2.20;;;;;;;;;;5094039;28;20506;-74
2023/04/04 00:31:59;;;;;;;2.17;1.75;;;;;;;;;;5095975;28;20553;-75
2023/04/04 00:34:25;;;;;;;3.10;2.53;;;;;;;;;;5093394;28;20019;-74
2023/04/04 00:36:52;;;;;;;2.38;2.17;;;;;;;;;;5095680;28;20464;-75
2023/04/04 00:39:18;;;;;;;3.17;2.10;;;;;;;;;;5116785;28;20039;-74
2023/04/04 00:41:44;;;;;;;2.88;2.40;;;;;;;;;;5116574;28;20024;-75
2023/04/04 00:44:11;;;;;;;3.17;1.92;;;;;;;;;;5117623;28;20080;-73
2023/04/04 00:46:37;;;;;;;6.10;3.05;;;;;;;;;;5117295;28;20043;-74
2023/04/04 00:49:03;;;;;;;3.67;2.28;;;;;;;;;;5116818;28;20016;-74
2023/04/04 00:51:29;;;;;;;3.67;2.10;;;;;;;;;;5097285;28;20040;-74
2023/04/04 00:53:55;;;;;;;1.92;1.77;;;;;;;;;;5095247;28;20026;-74
2023/04/04 00:56:22;;;;;;;4.10;2.17;;;;;;;;;;5116845;28;20027;-73
2023/04/04 00:58:48;;;;;;;2.30;1.75;;;;;;;;;;5119902;28;20022;-74
2023/04/04 01:01:14;;;;;;;3.80;2.50;;;;;;;;;;5097955;28;20569;-73
2023/04/04 01:03:41;;;;;;;2.53;1.60;;;;;;;;;;5096688;28;20024;-74
2023/04/04 01:06:07;;;;;;;2.83;1.70;;;;;;;;;;5097037;28;20418;-74
2023/04/04 01:08:36;;;;;;;3.97;2.13;;;;;;;;;;5096831;28;20478;-74
2023/04/04 01:11:02;;;;;;;4.45;2.22;;;;;;;;;;5118033;28;20475;-74
2023/04/04 01:13:29;;;;;;;3.42;1.42;;;;;;;;;;5103512;28;20031;-74
2023/04/04 01:15:55;;;;;;;5.55;2.85;;;;;;;;;;5121106;28;20027;-73
2023/04/04 01:18:22;;;;;;;7.18;2.40;;;;;;;;;;5100545;28;20377;-74
2023/04/04 01:21:00;;;;;;;2.58;2.38;;;;;;;;;;5118229;28;20136;-74
2023/04/04 01:23:32;;;;;;;3.10;1.80;;;;;;;;;;5117246;28;20153;-74
2023/04/04 01:26:05;;;;;;;1.95;1.75;;;;;;;;;;5116486;28;20042;-74
2023/04/04 01:28:31;;;;;;;3.80;2.10;;;;;;;;;;5118447;28;20485;-74
2023/04/04 01:30:59;;;;;;;2.22;2.03;;;;;;;;;;5117137;28;20028;-74
2023/04/04 01:33:28;;;;;;;2.83;2.22;;;;;;;;;;5097877;28;20454;-73
2023/04/04 01:36:07;;;;;;;3.78;1.95;;;;;;;;;;5097277;28;20073;-74
2023/04/04 01:38:33;;;;;;;3.70;1.92;;;;;;;;;;5119144;28;20034;-74
2023/04/04 01:41:02;;;;;;;3.25;2.13;;;;;;;;;;5117001;28;20098;-74
2023/04/04 01:43:31;;;;;;;2.65;2.00;;;;;;;;;;5117115;28;20020;-74
2023/04/04 01:45:58;;;;;;;3.58;2.67;;;;;;;;;;5119698;28;20330;-74
2023/04/04 01:48:24;;;;;;;7.50;2.50;;;;;;;;;;5119942;28;20019;-74
2023/04/04 01:50:50;;;;;;;2.70;1.88;;;;;;;;;;5119676;28;20056;-74
2023/04/04 01:53:16;;;;;;;3.60;2.30;;;;;;;;;;5119700;28;20024;-74
2023/04/04 01:55:42;;;;;;;3.10;1.95;;;;;;;;;;5100944;28;20031;-73
2023/04/04 01:58:09;;;;;;;2.97;2.03;;;;;;;;;;5100384;28;20049;-74
2023/04/04 02:00:35;;;;;;;3.25;1.80;;;;;;;;;;5100176;28;20023;-74
2023/04/04 02:03:01;;;;;;;4.20;2.45;;;;;;;;;;5100959;28;20028;-74
2023/04/04 02:05:27;;;;;;;2.58;2.35;;;;;;;;;;5100838;28;20036;-74
2023/04/04 02:07:53;;;;;;;3.15;2.00;;;;;;;;;;5102026;28;20016;-74
2023/04/04 02:10:19;;;;;;;5.75;2.10;;;;;;;;;;5119092;28;20027;-74
2023/04/04 02:12:46;;;;;;;2.03;1.80;;;;;;;;;;5119551;28;20467;-74
2023/04/04 02:15:12;;;;;;;6.88;2.00;;;;;;;;;;5100909;28;20023;-74
2023/04/04 02:17:38;;;;;;;3.92;1.80;;;;;;;;;;5099451;28;20103;-74
2023/04/04 02:20:05;;;;;;;6.68;1.85;;;;;;;;;;5117193;28;20034;-74
2023/04/04 02:22:31;;;;;;;1.65;1.50;;;;;;;;;;5101099;28;20020;-74
2023/04/04 02:24:59;;;;;;;3.63;1.98;;;;;;;;;;5100233;28;20026;-74
2023/04/04 02:27:25;;;;;;;3.00;2.30;;;;;;;;;;5118644;28;20379;-74
2023/04/04 02:29:52;;;;;;;3.20;2.08;;;;;;;;;;5119964;28;20024;-74
2023/04/04 02:32:18;;;;;;;3.38;2.22;;;;;;;;;;5118576;28;20026;-74
2023/04/04 02:34:44;;;;;;;1.98;1.40;;;;;;;;;;5119251;28;20384;-74
2023/04/04 02:37:10;;;;;;;3.40;2.10;;;;;;;;;;5119781;28;20551;-74
2023/04/04 02:39:36;;;;;;;2.50;1.88;;;;;;;;;;5119314;28;20027;-75
2023/04/04 02:42:02;;;;;;;3.08;1.92;;;;;;;;;;5119293;28;20114;-73
2023/04/04 02:44:28;;;;;;;1.80;1.65;;;;;;;;;;5101451;28;20046;-74
2023/04/04 02:46:55;;;;;;;2.13;1.92;;;;;;;;;;5119547;28;20101;-74
2023/04/04 02:49:21;;;;;;;3.65;2.20;;;;;;;;;;5101369;28;20113;-74
2023/04/04 02:51:47;;;;;;;3.47;1.77;;;;;;;;;;5119391;28;20032;-74
2023/04/04 02:54:13;;;;;;;4.80;1.95;;;;;;;;;;5120163;28;20019;-75
2023/04/04 02:56:39;;;;;;;2.78;2.03;;;;;;;;;;5100738;28;20499;-74
2023/04/04 02:59:05;;;;;;;2.90;2.13;;;;;;;;;;5100906;28;20027;-74
2023/04/04 03:01:31;;;;;;;2.38;2.00;;;;;;;;;;5100728;28;20026;-75
2023/04/04 03:03:57;;;;;;;4.53;1.80;;;;;;;;;;5100068;28;20020;-74
2023/04/04 03:06:23;;;;;;;4.07;2.10;;;;;;;;;;5099117;28;20038;-74
2023/04/04 03:08:49;;;;;;;2.10;1.90;;;;;;;;;;5100247;28;20045;-75
2023/04/04 03:11:20;;;;;;;3.15;1.65;;;;;;;;;;5119057;28;20520;-74
2023/04/04 03:13:46;;;;;;;8.52;2.47;;;;;;;;;;5119137;28;20049;-75
2023/04/04 03:16:15;;;;;;;2.28;1.70;;;;;;;;;;5118313;28;20034;-74
2023/04/04 03:18:41;;;;;;;3.00;2.35;;;;;;;;;;5100942;28;20055;-74
2023/04/04 03:21:07;;;;;;;2.75;1.98;;;;;;;;;;5100884;28;20079;-74
2023/04/04 03:23:33;;;;;;;2.85;1.95;;;;;;;;;;5100505;28;20323;-75
2023/04/04 03:25:59;;;;;;;2.05;1.60;;;;;;;;;;5118179;28;20062;-75
2023/04/04 03:28:25;;;;;;;9.77;2.30;;;;;;;;;;5118576;28;20540;-74
2023/04/04 03:30:51;;;;;;;4.40;2.13;;;;;;;;;;5099799;28;20170;-75
2023/04/04 03:33:18;;;;;;;1.73;1.55;;;;;;;;;;5117152;28;20510;-74
2023/04/04 03:35:44;;;;;;;6.55;2.00;;;;;;;;;;5117693;28;20046;-74
2023/04/04 03:38:10;;;;;;;2.83;1.65;;;;;;;;;;5117682;28;20088;-74
2023/04/04 03:40:36;;;;;;;1.50;1.40;;;;;;;;;;5118605;28;20377;-74
2023/04/04 03:43:02;;;;;;;3.28;1.95;;;;;;;;;;5099239;28;20028;-75
2023/04/04 03:45:29;;;;;;;1.90;1.75;;;;;;;;;;5117624;28;20038;-75
2023/04/04 03:47:55;;;;;;;2.33;2.13;;;;;;;;;;5117685;28;20019;-75
2023/04/04 03:50:21;;;;;;;6.57;2.45;;;;;;;;;;5116920;28;20023;-75
2023/04/04 03:52:47;;;;;;;2.78;2.17;;;;;;;;;;5116034;28;20039;-75
2023/04/04 03:55:13;;;;;;;2.78;2.20;;;;;;;;;;5117303;28;20035;-74
2023/04/04 03:57:39;;;;;;;2.50;1.73;;;;;;;;;;5117617;28;20024;-74
2023/04/04 04:00:06;;;;;;;4.40;2.75;;;;;;;;;;5117597;28;20086;-75
2023/04/04 04:02:32;;;;;;;7.35;3.13;;;;;;;;;;5117504;28;20048;-74
2023/04/04 04:04:58;;;;;;;3.05;1.70;;;;;;;;;;5117736;28;20027;-74
2023/04/04 04:07:24;;;;;;;3.22;2.00;;;;;;;;;;5118016;28;20031;-75
2023/04/04 04:09:50;;;;;;;4.38;2.60;;;;;;;;;;5117981;28;20206;-74
2023/04/04 04:12:16;;;;;;;2.55;2.28;;;;;;;;;;5117455;28;20098;-75
2023/04/04 04:14:42;;;;;;;5.47;2.58;;;;;;;;;;5117274;28;20023;-74
2023/04/04 04:17:08;;;;;;;2.80;2.13;;;;;;;;;;5117079;28;20054;-75
2023/04/04 04:19:34;;;;;;;3.00;1.92;;;;;;;;;;5115959;28;20019;-75
2023/04/04 04:22:00;;;;;;;2.50;2.17;;;;;;;;;;5098304;28;20026;-75
2023/04/04 04:24:26;;;;;;;2.35;1.90;;;;;;;;;;5116401;28;20016;-74
2023/04/04 04:26:52;;;;;;;3.53;2.15;;;;;;;;;;5098410;28;20043;-75
2023/04/04 04:29:18;;;;;;;8.18;2.78;;;;;;;;;;5098428;28;20020;-75
2023/04/04 04:31:44;;;;;;;4.85;2.67;;;;;;;;;;5099798;28;20070;-74
2023/04/04 04:34:10;;;;;;;3.33;2.22;;;;;;;;;;5102034;28;20024;-74
2023/04/04 04:36:36;;;;;;;4.07;1.85;;;;;;;;;;5121621;28;20400;-74
2023/04/04 04:39:03;;;;;;;3.00;2.63;;;;;;;;;;5103139;28;20020;-74
2023/04/04 04:41:29;;;;;;;2.55;2.25;;;;;;;;;;5121552;28;20102;-74
2023/04/04 04:43:55;;;;;;;3.85;2.38;;;;;;;;;;5119447;28;20100;-74
2023/04/04 04:46:21;;;;;;;4.43;2.40;;;;;;;;;;5100865;28;20035;-75
2023/04/04 04:48:47;;;;;;;5.70;3.65;;;;;;;;;;5100947;28;20022;-75
2023/04/04 04:51:14;;;;;;;4.15;2.30;;;;;;;;;;5102445;28;20395;-75
2023/04/04 04:53:40;;;;;;;10.82;2.17;;;;;;;;;;5102607;28;20023;-74
2023/04/04 04:56:07;;;;;;;3.85;2.88;;;;;;;;;;5120136;28;20028;-74
2023/04/04 04:58:33;;;;;;;4.35;2.50;;;;;;;;;;5120032;28;20057;-74
2023/04/04 05:00:59;;;;;;;5.68;3.00;;;;;;;;;;5121399;28;20027;-74
2023/04/04 05:03:26;;;;;;;5.75;3.25;;;;;;;;;;5102169;28;20064;-75
2023/04/04 05:05:52;;;;;;;6.57;2.28;;;;;;;;;;5119245;28;20624;-74
2023/04/04 05:08:18;;;;;;;3.80;2.35;;;;;;;;;;5118887;28;20027;-74
2023/04/04 05:10:44;;;;;;;3.67;1.98;;;;;;;;;;5117968;28;20030;-74
2023/04/04 05:13:10;;;;;;;4.45;2.35;;;;;;;;;;5118702;28;20023;-74
2023/04/04 05:15:36;;;;;;;4.60;3.08;;;;;;;;;;5116722;28;20027;-74
2023/04/04 05:18:02;;;;;;;7.03;4.13;;;;;;;;;;5118171;28;20118;-74
2023/04/04 05:20:28;;;;;;;7.78;3.00;;;;;;;;;;5116948;28;20062;-75
2023/04/04 05:22:55;;;;;;;5.10;3.17;;;;;;;;;;5115499;28;20382;-75
2023/04/04 05:25:21;;;;;;;4.90;2.70;;;;;;;;;;5101398;28;20032;-74
2023/04/04 05:27:47;;;;;;;6.88;3.00;;;;;;;;;;5123946;28;20031;-75
2023/04/04 05:30:13;;;;;;;7.57;3.70;;;;;;;;;;5120871;28;20012;-74
2023/04/04 05:32:39;;;;;;;5.25;2.53;;;;;;;;;;5100359;28;20103;-75
2023/04/04 05:35:05;;;;;;;4.72;2.55;;;;;;;;;;5100381;28;20020;-74
2023/04/04 05:37:32;;;;;;;4.07;3.55;;;;;;;;;;5097508;28;20923;-75
2023/04/04 05:39:58;;;;;;;4.60;3.20;;;;;;;;;;5095854;28;20047;-76
2023/04/04 05:42:24;;;;;;;6.15;3.08;;;;;;;;;;5115724;28;20019;-76
2023/04/04 05:44:50;;;;;;;4.93;3.17;;;;;;;;;;5113446;28;20519;-75
2023/04/04 05:47:16;;;;;;;6.70;3.60;;;;;;;;;;5098645;28;20030;-75
2023/04/04 05:49:42;;;;;;;4.38;3.45;;;;;;;;;;5117930;28;20539;-74
2023/04/04 05:52:09;;;;;;;5.70;3.53;;;;;;;;;;5118049;28;20104;-74
2023/04/04 05:54:35;;;;;;;7.22;3.70;;;;;;;;;;5118233;28;20503;-75
2023/04/04 05:57:01;;;;;;;7.50;3.10;;;;;;;;;;5118073;28;20083;-74
2023/04/04 05:59:28;;;;;;;4.07;2.95;;;;;;;;;;5118685;28;20050;-74
2023/04/04 06:01:54;;;;;;;7.68;3.45;;;;;;;;;;5119030;28;20019;-75
2023/04/04 06:04:20;;;;;;;6.07;3.42;;;;;;;;;;5118834;28;20081;-74
2023/04/04 06:06:46;;;;;;;5.05;3.45;;;;;;;;;;5116071;28;20035;-75
2023/04/04 06:09:12;;;;;;;4.45;2.80;;;;;;;;;;5119109;28;20045;-75
2023/04/04 06:11:41;;;;;;;3.67;2.45;;;;;;;;;;5118966;28;20023;-76
2023/04/04 06:14:07;;;;;;;4.72;2.97;;;;;;;;;;5099959;28;20040;-75
2023/04/04 06:16:34;;;;;;;6.13;3.75;;;;;;;;;;5114877;28;20048;-75
2023/04/04 06:19:00;;;;;;;2.97;2.22;;;;;;;;;;5112707;28;20023;-75
2023/04/04 06:21:26;;;;;;;3.88;2.78;;;;;;;;;;5112264;28;20028;-75
2023/04/04 06:23:52;;;;;;;4.78;2.67;;;;;;;;;;5111752;28;20116;-76
2023/04/04 06:26:19;;;;;;;2.85;2.30;;;;;;;;;;5112770;28;20036;-75
2023/04/04 06:28:48;;;;;;;3.33;2.40;;;;;;;;;;5120452;28;20058;-75
2023/04/04 06:31:14;;;;;;;4.80;2.97;;;;;;;;;;5100703;28;20019;-75
2023/04/04 06:33:40;;;;;;;5.57;2.58;;;;;;;;;;5123918;28;20027;-76
2023/04/04 06:36:06;;;;;;;6.88;2.95;;;;;;;;;;5104211;28;20141;-75
2023/04/04 06:38:33;;;;;;;3.35;2.60;;;;;;;;;;5111860;28;20020;-75
2023/04/04 06:40:59;;;;;;;6.55;2.72;;;;;;;;;;5109022;28;20035;-74
2023/04/04 06:43:25;;;;;;;4.50;2.88;;;;;;;;;;5091299;28;20103;-75
2023/04/04 06:45:51;;;;;;;5.43;2.70;;;;;;;;;;5093305;28;20032;-75
2023/04/04 06:48:17;;;;;;;10.32;5.03;;;;;;;;;;5093798;28;20028;-74
2023/04/04 06:50:43;;;;;;;6.53;3.13;;;;;;;;;;5090295;28;20089;-76
2023/04/04 06:53:09;;;;;;;11.05;4.35;;;;;;;;;;5089073;28;20032;-75
2023/04/04 06:55:35;;;;;;;12.98;3.75;;;;;;;;;;5089514;28;20391;-76
2023/04/04 06:58:01;;;;;;;4.57;2.70;;;;;;;;;;5090847;28;20361;-75
2023/04/04 07:00:27;;;;;;;5.20;2.85;;;;;;;;;;5091819;28;20315;-75
2023/04/04 07:03:00;;;;;;;16.52;6.03;;;;;;;;;;5091518;28;20279;-74
2023/04/04 07:05:26;;;;;;;5.28;4.70;;;;;;;;;;5090231;28;20047;-74
2023/04/04 07:07:56;;;;;;;5.53;2.42;;;;;;;;;;5090302;28;20091;-75
2023/04/04 07:10:22;;;;;;;3.08;2.25;;;;;;;;;;5089991;28;20054;-74
2023/04/04 07:12:49;;;;;;;4.97;2.25;;;;;;;;;;5089614;28;20270;-75
2023/04/04 07:15:16;;;;;;;3.22;2.25;;;;;;;;;;5090728;28;20582;-75
2023/04/04 07:17:42;;;;;;;5.13;4.18;;;;;;;;;;5091099;28;20127;-73
2023/04/04 07:20:08;;;;;;;6.82;3.17;;;;;;;;;;5091201;28;20024;-75
2023/04/04 07:22:41;;;;;;;5.35;3.30;;;;;;;;;;5073613;28;20028;-74
2023/04/04 07:25:08;;;;;;;6.57;2.58;;;;;;;;;;5091000;28;20031;-74
2023/04/04 07:27:34;;;;;;;4.97;3.60;;;;;;;;;;5092602;28;20078;-74
2023/04/04 07:30:01;;;;;;;3.03;2.33;;;;;;;;;;5090385;28;20012;-75
2023/04/04 07:32:28;;;;;;;4.85;2.58;;;;;;;;;;5091745;28;20048;-74
2023/04/04 07:34:54;;;;;;;3.75;2.60;;;;;;;;;;5091267;28;20350;-74
2023/04/04 07:37:20;;;;;;;3.30;2.05;;;;;;;;;;5090744;28;20039;-76
2023/04/04 07:39:48;;;;;;;5.53;2.90;;;;;;;;;;5091190;28;20127;-74
2023/04/04 07:42:15;;;;;;;4.03;2.47;;;;;;;;;;5090719;28;20016;-75
2023/04/04 07:44:41;;;;;;;5.47;2.50;;;;;;;;;;5090964;28;20030;-75
2023/04/04 07:47:07;;;;;;;4.30;1.92;;;;;;;;;;5090761;28;20114;-75
2023/04/04 07:49:33;;;;;;;3.72;3.38;;;;;;;;;;5090622;28;20028;-74
2023/04/04 07:51:59;;;;;;;3.72;2.60;;;;;;;;;;5090328;28;20028;-75
2023/04/04 07:54:26;;;;;;;3.17;2.03;;;;;;;;;;5071966;28;20644;-74
2023/04/04 07:56:52;;;;;;;4.20;2.42;;;;;;;;;;5090435;28;20016;-74
2023/04/04 07:59:18;;;;;;;4.57;2.10;;;;;;;;;;5071207;28;20103;-75
2023/04/04 08:01:44;;;;;;;4.35;2.28;;;;;;;;;;5089607;28;20386;-75
2023/04/04 08:04:10;;;;;;;3.10;2.15;;;;;;;;;;5071993;28;20157;-74
2023/04/04 08:06:37;;;;;;;3.95;1.92;;;;;;;;;;5089515;28;20041;-74
2023/04/04 08:09:03;;;;;;;7.47;2.83;;;;;;;;;;5093191;28;20043;-76
2023/04/04 08:11:29;;;;;;;2.75;2.40;;;;;;;;;;5093439;28;20035;-74
2023/04/04 08:13:55;;;;;;;2.03;1.83;;;;;;;;;;5093527;28;20031;-74
2023/04/04 08:16:22;;;;;;;3.92;2.13;;;;;;;;;;5093244;28;20476;-74
2023/04/04 08:18:48;;;;;;;4.45;2.38;;;;;;;;;;5093573;28;20488;-75
2023/04/04 08:21:14;;;;;;;4.82;2.40;;;;;;;;;;5093881;28;20016;-74
2023/04/04 08:23:40;;;;;;;6.05;2.30;;;;;;;;;;5093825;28;20027;-74
2023/04/04 08:26:07;;;;;;;1.70;1.60;;;;;;;;;;5074722;28;20466;-75
2023/04/04 08:28:33;;;;;;;8.43;2.25;;;;;;;;;;5092687;28;20023;-75
2023/04/04 08:30:59;;;;;;;3.72;1.75;;;;;;;;;;5074635;28;20192;-75
2023/04/04 08:33:25;;;;;;;5.18;2.75;;;;;;;;;;5093060;28;20111;-75
2023/04/04 08:35:52;;;;;;;6.20;2.53;;;;;;;;;;5092866;28;20103;-76
2023/04/04 08:38:18;;;;;;;3.50;2.17;;;;;;;;;;5074678;28;20020;-75
2023/04/04 08:40:47;;;;;;;3.67;1.70;;;;;;;;;;5092937;28;20039;-75
2023/04/04 08:43:13;;;;;;;2.55;1.80;;;;;;;;;;5092424;28;20034;-74
2023/04/04 08:45:42;;;;;;;3.22;2.17;;;;;;;;;;5092808;28;20136;-76
2023/04/04 08:48:10;;;;;;;2.70;2.17;;;;;;;;;;5074247;28;20051;-75
2023/04/04 08:50:37;;;;;;;2.13;1.90;;;;;;;;;;5074301;28;20024;-74
2023/04/04 08:53:05;;;;;;;3.05;2.22;;;;;;;;;;5074689;28;20077;-74
2023/04/04 08:55:31;;;;;;;3.55;2.10;;;;;;;;;;5100234;28;20066;-75
2023/04/04 08:57:57;;;;;;;3.30;2.00;;;;;;;;;;5084515;28;20069;-74
2023/04/04 09:00:24;;;;;;;3.92;2.00;;;;;;;;;;5098290;28;20090;-74
2023/04/04 09:02:58;;;;;;;2.78;1.88;;;;;;;;;;5100027;28;20067;-74
2023/04/04 09:05:25;;;;;;;3.00;2.10;;;;;;;;;;5078344;28;20054;-75
2023/04/04 09:07:51;;;;;;;2.85;2.42;;;;;;;;;;5094503;28;20158;-75
2023/04/04 09:10:17;;;;;;;2.22;2.08;;;;;;;;;;5094610;28;20023;-75
2023/04/04 09:12:46;;;;;;;3.05;2.17;;;;;;;;;;5092609;28;20020;-74
2023/04/04 09:15:12;;;;;;;4.82;1.83;;;;;;;;;;5099359;28;20300;-75
2023/04/04 09:17:38;;;;;;;4.05;2.03;;;;;;;;;;5092666;28;20300;-74
2023/04/04 09:20:24;;;;;;;4.63;2.00;;;;;;;;;;5075104;28;20107;-74
2023/04/04 09:22:51;;;;;;;2.33;2.15;;;;;;;;;;5091965;28;20111;-74
2023/04/04 09:25:18;;;;;;;1.13;1.13;;;;;;;;;;5093975;28;20048;-74
2023/04/04 09:27:45;;;;;;;4.13;2.30;;;;;;;;;;5077907;28;20020;-74
2023/04/04 09:30:11;;;;;;;2.63;2.08;;;;;;;;;;5074179;28;20415;-74
2023/04/04 09:32:38;;;;;;;2.10;1.95;;;;;;;;;;5093138;28;20507;-74
2023/04/04 09:35:04;;;;;;;1.40;1.30;;;;;;;;;;5092848;28;20059;-74
2023/04/04 09:37:30;;;;;;;2.17;1.80;;;;;;;;;;5092726;28;20434;-74
2023/04/04 09:39:56;;;;;;;1.88;1.50;;;;;;;;;;5090818;28;20051;-74
2023/04/04 09:42:22;;;;;;;2.70;1.98;;;;;;;;;;5092583;28;20039;-74
2023/04/04 09:44:48;;;;;;;3.83;1.80;;;;;;;;;;5091201;28;20028;-74
2023/04/04 09:47:24;;;;;;;3.72;1.80;;;;;;;;;;5073604;28;20028;-73
2023/04/04 09:49:50;;;;;;;4.45;2.15;;;;;;;;;;5092381;28;20095;-74
2023/04/04 09:52:20;;;;;;;3.67;2.15;;;;;;;;;;5074588;28;20484;-74
2023/04/04 09:54:46;;;;;;;;;;;;;;;;;;5073633;28;20502;-75
2023/04/04 09:57:12;;;;;;;5.45;1.92;;;;;;;;;;5073597;28;20003;-74
2023/04/04 09:59:38;;;;;;;1.80;1.65;;;;;;;;;;5073562;28;20020;-74
2023/04/04 10:02:06;;;;;;;3.25;1.75;;;;;;;;;;5093112;28;20468;-74
2023/04/04 10:04:34;;;;;;;3.97;2.38;;;;;;;;;;5073121;28;20060;-75
2023/04/04 10:07:00;;;;;;;1.13;1.08;;;;;;;;;;5092965;28;20062;-75
2023/04/04 10:09:27;;;;;;;3.40;1.70;;;;;;;;;;5072865;28;20016;-74
2023/04/04 10:12:07;;;;;;;3.97;1.58;;;;;;;;;;5089717;28;20034;-74
2023/04/04 10:14:36;;;;;;;3.97;2.08;;;;;;;;;;5089853;28;20020;-74
2023/04/04 10:17:08;;;;;;;3.85;2.22;;;;;;;;;;5089709;28;20052;-74
2023/04/04 10:19:34;;;;;;;2.67;1.63;;;;;;;;;;5090694;28;20013;-74
2023/04/04 10:22:01;;;;;;;3.63;2.30;;;;;;;;;;5089887;28;20070;-74
2023/04/04 10:24:27;;;;;;;4.47;2.03;;;;;;;;;;5089457;28;20025;-73
2023/04/04 10:26:54;;;;;;;3.35;1.42;;;;;;;;;;5089590;28;20043;-73
2023/04/04 10:29:21;;;;;;;3.20;2.58;;;;;;;;;;5070307;28;20488;-72
2023/04/04 10:31:49;;;;;;;5.00;2.20;;;;;;;;;;5088746;28;20126;-74
2023/04/04 10:34:28;;;;;;;2.27;1.70;;;;;;;;;;5089953;28;20149;-75
2023/04/04 10:37:02;;;;;;;2.03;1.80;;;;;;;;;;5091461;28;20031;-74
2023/04/04 10:39:37;;;;;;;4.65;1.77;;;;;;;;;;5090829;28;20567;-74
2023/04/04 10:42:05;;;;;;;4.43;2.10;;;;;;;;;;5091646;28;20349;-74
2023/04/04 10:44:32;;;;;;;7.47;3.00;;;;;;;;;;5072567;28;20016;-75
2023/04/04 10:47:18;;;;;;;3.05;1.60;;;;;;;;;;5074074;28;20055;-75
2023/04/04 10:49:45;;;;;;;3.13;2.10;;;;;;;;;;5091056;28;20384;-75
2023/04/04 10:52:23;;;;;;;5.32;2.40;;;;;;;;;;5091051;28;20030;-74
2023/04/04 10:54:53;;;;;;;2.83;2.50;;;;;;;;;;5089949;28;20026;-74
2023/04/04 10:57:20;;;;;;;2.53;1.95;;;;;;;;;;5090458;28;20032;-74
2023/04/04 10:59:56;;;;;;;4.03;2.15;;;;;;;;;;5091203;28;20103;-75
2023/04/04 11:02:42;;;;;;;5.30;2.22;;;;;;;;;;5071925;28;20072;-74
2023/04/04 11:05:17;;;;;;;4.53;1.60;;;;;;;;;;5090006;28;20380;-73
2023/04/04 11:07:45;;;;;;;3.45;1.73;;;;;;;;;;5071716;28;20097;-74
2023/04/04 11:10:15;;;;;;;2.50;1.83;;;;;;;;;;5071643;28;20480;-75
2023/04/04 11:12:44;;;;;;;1.75;1.65;;;;;;;;;;5071351;28;20020;-74
2023/04/04 11:15:11;;;;;;;5.95;1.98;;;;;;;;;;5071301;28;20131;-74
2023/04/04 11:17:50;;;;;;;3.72;1.80;;;;;;;;;;5089536;28;20070;-74
2023/04/04 11:20:22;;;;;;;4.03;1.42;;;;;;;;;;5089847;28;20118;-74
2023/04/04 11:23:07;;;;;;;4.25;1.73;;;;;;;;;;5071729;28;20059;-75
2023/04/04 11:25:38;;;;;;;2.67;2.00;;;;;;;;;;5090091;28;20036;-74
2023/04/04 11:28:14;;;;;;;4.70;1.85;;;;;;;;;;5089726;28;20012;-74
2023/04/04 11:30:47;;;;;;;2.97;1.77;;;;;;;;;;5089190;28;20024;-75
2023/04/04 11:33:14;;;;;;;2.55;1.55;;;;;;;;;;5092309;28;20077;-74
2023/04/04 11:35:45;;;;;;;4.25;1.80;;;;;;;;;;5090770;28;20468;-74
2023/04/04 11:38:13;;;;;;;5.70;1.80;;;;;;;;;;5090608;28;20050;-75
2023/04/04 11:40:51;;;;;;;2.88;1.20;;;;;;;;;;5090088;28;20357;-74
2023/04/04 11:43:19;;;;;;;6.82;1.95;;;;;;;;;;5089547;28;20024;-74
2023/04/04 11:45:45;;;;;;;2.60;1.75;;;;;;;;;;5089575;28;20063;-74
2023/04/04 11:48:12;;;;;;;4.40;2.05;;;;;;;;;;5090860;28;20415;-74
2023/04/04 11:50:39;;;;;;;5.45;1.58;;;;;;;;;;5094611;28;20027;-74
2023/04/04 11:53:07;;;;;;;4.55;2.33;;;;;;;;;;5089763;28;20080;-75
2023/04/04 11:55:33;;;;;;;3.10;2.25;;;;;;;;;;5090471;28;20043;-74
2023/04/04 11:58:26;;;;;;;1.80;1.48;;;;;;;;;;5071254;28;20016;-74
2023/04/04 12:00:52;;;;;;;3.13;1.38;;;;;;;;;;5083883;28;20036;-73
2023/04/04 12:03:18;;;;;;;3.70;1.80;;;;;;;;;;5087340;28;20035;-73
2023/04/04 12:05:44;;;;;;;2.28;1.70;;;;;;;;;;5091423;28;20028;-74
2023/04/04 12:08:11;;;;;;;4.30;1.90;;;;;;;;;;5071704;28;20102;-74
2023/04/04 12:10:39;;;;;;;3.05;1.90;;;;;;;;;;5092227;28;20472;-75
2023/04/04 12:13:07;;;;;;;6.07;2.63;;;;;;;;;;5095489;28;20490;-75
2023/04/04 12:15:37;;;;;;;1.55;1.45;;;;;;;;;;5090996;28;20032;-74
2023/04/04 12:18:03;;;;;;;;;;;;;;;;;;5091180;28;20105;-74
2023/04/04 12:20:29;;;;;;;1.60;1.48;;;;;;;;;;5075708;28;19912;-74
2023/04/04 12:22:55;;;;;;;2.78;1.90;;;;;;;;;;5075910;28;20063;-74
2023/04/04 12:25:23;;;;;;;4.30;1.90;;;;;;;;;;5074353;28;20035;-75
2023/04/04 12:27:50;;;;;;;2.58;2.00;;;;;;;;;;5092771;28;20046;-74
2023/04/04 12:30:17;;;;;;;3.40;2.20;;;;;;;;;;5072144;28;20436;-75
2023/04/04 12:32:44;;;;;;;4.63;2.10;;;;;;;;;;5088979;28;20066;-75
2023/04/04 12:35:12;;;;;;;3.05;1.63;;;;;;;;;;5089241;28;20040;-76
2023/04/04 12:37:40;;;;;;;2.47;1.50;;;;;;;;;;5070603;28;20427;-76
2023/04/04 12:40:06;;;;;;;2.28;1.58;;;;;;;;;;5072421;28;20024;-75
2023/04/04 12:42:33;;;;;;;3.10;1.75;;;;;;;;;;5089739;28;20060;-75
2023/04/04 12:45:02;;;;;;;5.72;1.70;;;;;;;;;;5090301;28;20039;-75
2023/04/04 12:47:30;;;;;;;4.28;2.20;;;;;;;;;;5092311;28;20436;-75
2023/04/04 12:49:56;;;;;;;1.83;1.42;;;;;;;;;;5090724;28;20169;-75
2023/04/04 12:52:30;;;;;;;2.05;1.73;;;;;;;;;;5090281;28;20479;-75
2023/04/04 12:54:58;;;;;;;3.08;1.75;;;;;;;;;;5095040;28;20021;-75
2023/04/04 12:57:24;;;;;;;4.05;1.73;;;;;;;;;;5092643;28;20038;-75
2023/04/04 12:59:54;;;;;;;3.28;1.67;;;;;;;;;;5073832;28;20028;-74
2023/04/04 13:02:21;;;;;;;3.70;2.10;;;;;;;;;;5075070;28;20177;-76
2023/04/04 13:04:50;;;;;;;2.60;1.73;;;;;;;;;;5074177;28;20591;-74
2023/04/04 13:07:24;;;;;;;3.38;2.00;;;;;;;;;;5095316;28;20090;-74
2023/04/04 13:09:51;;;;;;;2.67;2.00;;;;;;;;;;5096586;28;20094;-75
2023/04/04 13:12:18;;;;;;;2.75;2.10;;;;;;;;;;5076298;28;20031;-75
2023/04/04 13:15:00;;;;;;;3.95;2.25;;;;;;;;;;5093507;28;20035;-74
2023/04/04 13:17:38;;;;;;;4.22;2.15;;;;;;;;;;5094092;28;20051;-75
2023/04/04 13:20:04;;;;;;;4.65;2.25;;;;;;;;;;5096357;28;20029;-76
2023/04/04 13:22:33;;;;;;;4.35;2.83;;;;;;;;;;5075997;28;20034;-75
2023/04/04 13:24:59;;;;;;;2.38;1.92;;;;;;;;;;5095052;28;20071;-74
2023/04/04 13:27:27;;;;;;;13.57;3.70;;;;;;;;;;5077139;28;20028;-75
2023/04/04 13:29:53;;;;;;;4.82;1.90;;;;;;;;;;5078171;28;20038;-74
2023/04/04 13:32:19;;;;;;;3.53;2.20;;;;;;;;;;5095483;28;20099;-74
2023/04/04 13:34:45;;;;;;;3.47;2.05;;;;;;;;;;5094630;28;20051;-73
2023/04/04 13:37:14;;;;;;;1.83;1.70;;;;;;;;;;5092631;28;20032;-74
2023/04/04 13:39:40;;;;;;;3.97;2.17;;;;;;;;;;5091770;28;20023;-75
2023/04/04 13:42:06;;;;;;;3.28;1.80;;;;;;;;;;5092467;28;20024;-74
2023/04/04 13:44:33;;;;;;;2.65;2.20;;;;;;;;;;5091982;28;20092;-75
2023/04/04 13:46:59;;;;;;;2.88;1.45;;;;;;;;;;5091800;28;20028;-74
2023/04/04 13:49:25;;;;;;;2.03;1.90;;;;;;;;;;5092081;28;20027;-76
2023/04/04 13:51:51;;;;;;;2.38;1.92;;;;;;;;;;5092446;28;20019;-74
2023/04/04 13:54:17;;;;;;;2.97;2.15;;;;;;;;;;5091519;28;20380;-74
2023/04/04 13:56:43;;;;;;;2.55;1.40;;;;;;;;;;5097000;28;20043;-74
2023/04/04 13:59:09;;;;;;;3.72;2.00;;;;;;;;;;5081633;28;20430;-75
2023/04/04 14:01:36;;;;;;;6.97;2.30;;;;;;;;;;5077144;28;20020;-74
2023/04/04 14:04:02;;;;;;;3.30;1.90;;;;;;;;;;5096505;28;20034;-73
2023/04/04 14:06:28;;;;;;;6.63;1.85;;;;;;;;;;5098050;28;20032;-73
2023/04/04 14:08:54;;;;;;;6.28;2.55;;;;;;;;;;5104359;28;20027;-76
2023/04/04 14:11:20;;;;;;;1.83;1.67;;;;;;;;;;5084657;28;20020;-74
2023/04/04 14:13:46;;;;;;;3.28;1.98;;;;;;;;;;5085890;28;20027;-75
2023/04/04 14:16:12;;;;;;;2.30;2.13;;;;;;;;;;5084432;28;20024;-75
2023/04/04 14:18:38;;;;;;;3.30;2.30;;;;;;;;;;5083759;28;20028;-75
2023/04/04 14:21:06;;;;;;;5.25;2.25;;;;;;;;;;5101349;28;20344;-75
2023/04/04 14:23:32;;;;;;;3.25;2.22;;;;;;;;;;5101903;28;20032;-75
2023/04/04 14:25:58;;;;;;;6.22;1.40;;;;;;;;;;5102751;28;20077;-74
2023/04/04 14:28:24;;;;;;;2.58;2.08;;;;;;;;;;5105085;28;20111;-74
2023/04/04 14:30:51;;;;;;;1.63;1.52;;;;;;;;;;5094199;28;20455;-75
2023/04/04 14:33:17;;;;;;;2.83;2.47;;;;;;;;;;5091239;28;20024;-74
2023/04/04 14:35:43;;;;;;;2.08;1.90;;;;;;;;;;5091426;28;20028;-73
2023/04/04 14:38:09;;;;;;;3.53;1.80;;;;;;;;;;5093037;28;20020;-74
2023/04/04 14:40:35;;;;;;;4.93;1.80;;;;;;;;;;5093696;28;20085;-75
2023/04/04 14:43:01;;;;;;;3.63;1.65;;;;;;;;;;5076508;28;20083;-74